Time;durP1;ratioP1;P1;durP2;ratioP2;P2;SDS_P1;SDS_P2;PMS_P1;PMS_P2;Temp;Humidity;BMP_temperature;BMP_pressure;BME280_temperature;BME280_humidity;BME280_pressure;Samples;Min_cycle;Max_cycle;Signal;HPM_P1;HPM_P2
2022/12/20 00:04:23;;;;;;;32.72;27.90;;;5.60;83.10;;;;;;10909594;32;20325;-78
2022/12/20 00:10:25;;;;;;;32.05;25.45;;;5.50;83.10;;;;;;10909234;32;20019;-78
2022/12/20 00:16:28;;;;;;;37.00;28.67;;;5.50;83.10;;;;;;10909093;32;20074;-77
2022/12/20 00:22:30;;;;;;;29.73;24.87;;;5.50;83.10;;;;;;10514162;27;12078192;-78
2022/12/20 00:28:34;;;;;;;35.42;27.77;;;5.50;83.00;;;;;;10793875;33;20020;-77
2022/12/20 00:34:36;;;;;;;30.95;25.55;;;5.60;82.90;;;;;;10790374;33;20371;-77
2022/12/20 00:40:38;;;;;;;46.53;37.30;;;5.60;82.90;;;;;;10793395;33;20452;-78
2022/12/20 00:46:40;;;;;;;42.88;36.00;;;5.30;83.30;;;;;;10794945;32;20032;-77
2022/12/20 00:52:44;;;;;;;38.20;28.00;;;5.50;83.80;;;;;;10870445;32;20050;-78
2022/12/20 00:58:46;;;;;;;33.22;28.15;;;5.60;83.80;;;;;;10870227;32;20019;-77
2022/12/20 01:04:49;;;;;;;39.92;31.00;;;5.50;83.80;;;;;;10870041;32;20047;-77
2022/12/20 01:11:01;;;;;;;34.50;30.55;;;5.70;83.80;;;;;;10867160;32;20027;-77
2022/12/20 01:17:03;;;;;;;43.00;36.05;;;5.40;83.80;;;;;;10869594;32;20020;-78
2022/12/20 01:23:05;;;;;;;32.38;27.77;;;5.40;84.50;;;;;;10869380;32;20043;-78
2022/12/20 01:29:08;;;;;;;33.67;25.70;;;5.50;84.20;;;;;;10869227;32;20042;-77
2022/12/20 01:35:10;;;;;;;32.00;27.80;;;5.30;84.40;;;;;;10868847;32;20054;-78
2022/12/20 01:41:17;;;;;;;38.20;30.17;;;5.30;84.40;;;;;;10868625;32;20023;-77
2022/12/20 01:47:20;;;;;;;39.05;30.35;;;5.30;84.80;;;;;;10868552;32;20394;-78
2022/12/20 01:53:23;;;;;;;34.35;27.60;;;5.40;84.60;;;;;;10868484;32;20349;-78
2022/12/20 01:59:26;;;;;;;31.77;26.48;;;5.50;84.40;;;;;;10866616;32;20428;-77
2022/12/20 02:05:39;;;;;;;31.30;25.80;;;5.30;84.40;;;;;;10864536;32;20398;-74
2022/12/20 02:12:15;;;;;;;41.72;34.35;;;5.20;84.80;;;;;;10866795;32;20028;-73
2022/12/20 02:18:36;;;;;;;35.85;28.27;;;5.40;84.90;;;;;;10827310;32;20027;-74
2022/12/20 02:24:59;;;;;;;35.90;29.45;;;5.50;84.70;;;;;;10826503;32;20094;-74
2022/12/20 02:31:08;;;;;;;36.20;27.45;;;5.50;84.70;;;;;;10812417;32;20433;-73
2022/12/20 02:37:10;;;;;;;32.07;27.20;;;5.40;84.70;;;;;;10826219;32;20027;-73
2022/12/20 02:49:37;;;;;;;38.33;30.50;;;5.50;84.90;;;;;;10828791;32;20050;-73
2022/12/20 02:55:49;;;;;;;32.47;26.77;;;5.50;84.80;;;;;;10865122;32;20070;-74
2022/12/20 03:01:53;;;;;;;30.70;24.50;;;5.60;84.70;;;;;;10866641;32;20321;-74
2022/12/20 03:07:55;;;;;;;32.15;28.65;;;5.30;84.70;;;;;;10866514;32;20016;-74
2022/12/20 03:13:58;;;;;;;41.83;36.17;;;5.20;85.20;;;;;;10866311;32;20016;-74
2022/12/20 03:20:00;;;;;;;43.72;37.08;;;5.40;85.30;;;;;;10866226;32;20038;-74
2022/12/20 03:26:03;;;;;;;37.63;31.55;;;5.50;85.00;;;;;;10866126;32;20042;-73
2022/12/20 03:32:05;;;;;;;42.92;33.28;;;5.60;84.90;;;;;;10866030;32;20307;-73
2022/12/20 03:38:07;;;;;;;35.20;29.70;;;5.70;84.90;;;;;;10866022;32;20016;-73
2022/12/20 03:44:09;;;;;;;45.63;36.90;;;5.60;84.90;;;;;;10865991;32;20023;-73
2022/12/20 03:50:12;;;;;;;34.78;29.50;;;5.60;84.90;;;;;;10865916;32;20004;-73
2022/12/20 03:56:15;;;;;;;37.70;28.90;;;5.60;85.00;;;;;;10865639;32;20440;-73
2022/12/20 04:02:17;;;;;;;28.95;24.85;;;5.70;85.00;;;;;;10867692;32;20016;-73
2022/12/20 04:08:37;;;;;;;37.35;31.65;;;5.60;85.00;;;;;;10872088;32;20020;-73
2022/12/20 04:14:39;;;;;;;32.92;27.62;;;5.70;85.10;;;;;;10867798;32;20034;-73
2022/12/20 04:20:41;;;;;;;36.50;29.58;;;5.80;85.00;;;;;;10871717;32;20038;-74
2022/12/20 04:26:45;;;;;;;31.35;24.48;;;5.70;84.90;;;;;;10870651;32;20016;-73
2022/12/20 04:32:47;;;;;;;33.97;26.58;;;5.80;84.90;;;;;;10871179;32;20046;-73
2022/12/20 04:38:49;;;;;;;33.05;28.48;;;5.80;84.70;;;;;;10869506;32;20028;-73
2022/12/20 04:44:51;;;;;;;29.70;21.42;;;5.90;84.80;;;;;;10870880;32;20054;-73
2022/12/20 04:50:55;;;;;;;31.45;25.77;;;5.90;84.60;;;;;;10870540;32;20047;-73
2022/12/20 04:56:58;;;;;;;28.17;22.62;;;5.90;84.90;;;;;;10856806;32;20054;-73
2022/12/20 05:03:00;;;;;;;30.92;23.80;;;6.10;84.60;;;;;;10870131;32;20046;-74
2022/12/20 05:09:03;;;;;;;27.80;22.67;;;6.10;84.60;;;;;;10869993;32;20016;-74
2022/12/20 05:15:06;;;;;;;31.15;25.55;;;5.80;84.70;;;;;;10869288;32;20020;-74
2022/12/20 05:27:29;;;;;;;39.47;31.30;;;5.90;84.50;;;;;;10869334;32;20334;-74
2022/12/20 05:33:31;;;;;;;32.55;27.08;;;5.70;85.00;;;;;;10869133;32;20027;-74
2022/12/20 05:39:34;;;;;;;30.98;26.12;;;6.00;85.20;;;;;;10868907;32;20020;-74
2022/12/20 05:45:37;;;;;;;35.45;29.55;;;6.40;84.70;;;;;;10868641;32;20031;-73
2022/12/20 05:51:41;;;;;;;29.42;24.80;;;6.50;84.10;;;;;;10864292;32;20046;-74
2022/12/20 05:57:45;;;;;;;42.50;32.47;;;6.60;84.50;;;;;;10864013;32;20394;-74
2022/12/20 06:03:49;;;;;;;29.30;24.17;;;6.70;84.10;;;;;;10864844;32;20346;-74
2022/12/20 06:09:52;;;;;;;29.45;23.05;;;6.80;84.10;;;;;;10867969;32;20424;-73
2022/12/20 06:15:54;;;;;;;23.23;19.50;;;7.00;83.80;;;;;;10867635;32;20429;-73
2022/12/20 06:21:56;;;;;;;36.17;27.67;;;6.50;83.80;;;;;;10867230;32;20023;-73
2022/12/20 06:28:00;;;;;;;36.78;25.17;;;6.20;84.70;;;;;;10866567;32;20046;-73
2022/12/20 06:34:02;;;;;;;37.72;30.95;;;6.40;84.60;;;;;;10867140;32;20031;-74
2022/12/20 06:40:29;;;;;;;33.97;28.80;;;6.80;84.30;;;;;;10866166;32;20027;-73
2022/12/20 06:46:33;;;;;;;41.90;32.50;;;7.10;83.90;;;;;;10866733;32;20182;-73
2022/12/20 06:52:35;;;;;;;35.80;28.10;;;7.20;83.50;;;;;;10853146;32;20062;-74
2022/12/20 06:58:38;;;;;;;24.80;22.30;;;7.20;83.10;;;;;;10864402;32;20337;-73
2022/12/20 07:04:41;;;;;;;30.65;23.38;;;6.90;83.30;;;;;;10865983;32;20016;-73
2022/12/20 07:10:43;;;;;;;46.22;33.90;;;6.90;83.90;;;;;;10862155;32;20054;-73
2022/12/20 07:16:45;;;;;;;35.10;28.85;;;6.60;84.10;;;;;;10865924;32;20050;-73
2022/12/20 07:23:00;;;;;;;40.72;30.52;;;6.60;84.00;;;;;;10865869;32;20046;-73
2022/12/20 07:29:02;;;;;;;42.72;30.05;;;6.90;84.70;;;;;;10850269;32;20039;-74
2022/12/20 07:35:05;;;;;;;47.42;38.40;;;7.20;84.00;;;;;;10866764;32;20110;-74
2022/12/20 07:41:09;;;;;;;38.55;27.60;;;7.50;83.70;;;;;;10873112;32;20020;-73
2022/12/20 07:47:11;;;;;;;29.35;23.52;;;7.50;83.30;;;;;;10871562;32;20040;-73
2022/12/20 07:53:13;;;;;;;35.78;24.65;;;7.60;83.30;;;;;;10870777;32;20036;-73
2022/12/20 07:59:22;;;;;;;28.87;19.58;;;7.60;83.20;;;;;;10871372;32;20031;-74
2022/12/20 08:05:42;;;;;;;;;;;7.70;83.00;;;;;;10872431;32;20034;-73
2022/12/20 08:11:46;;;;;;;27.92;21.30;;;7.20;83.30;;;;;;10871846;32;19939;-73
2022/12/20 08:18:12;;;;;;;24.17;19.40;;;7.20;83.90;;;;;;10858457;32;20019;-74
2022/12/20 08:24:14;;;;;;;41.10;31.98;;;6.90;83.80;;;;;;10897958;27;20369;-74
2022/12/20 08:30:17;;;;;;;30.60;21.02;;;6.90;84.60;;;;;;10907823;32;20012;-74
2022/12/20 08:36:19;;;;;;;33.03;25.60;;;7.20;84.20;;;;;;10908344;32;20085;-73
2022/12/20 08:42:21;;;;;;;22.77;18.62;;;7.20;84.10;;;;;;10907317;32;20057;-73
2022/12/20 08:48:23;;;;;;;25.90;20.58;;;7.20;84.00;;;;;;10906435;32;20038;-74
2022/12/20 08:54:25;;;;;;;24.83;19.45;;;7.20;84.60;;;;;;10903666;32;20431;-74
2022/12/20 09:00:27;;;;;;;27.77;19.50;;;7.10;84.20;;;;;;10907550;32;20042;-74
2022/12/20 09:06:29;;;;;;;26.27;21.48;;;6.70;84.70;;;;;;10907451;32;20042;-74
2022/12/20 09:12:36;;;;;;;25.48;19.83;;;6.80;85.20;;;;;;10901825;32;20353;-74
2022/12/20 09:18:38;;;;;;;21.87;17.15;;;7.30;85.30;;;;;;10906944;32;20432;-75
2022/12/20 09:24:40;;;;;;;24.85;21.33;;;7.70;84.90;;;;;;10905467;32;20061;-74
2022/12/20 09:30:42;;;;;;;28.75;21.73;;;7.60;84.60;;;;;;10906558;32;20011;-73
2022/12/20 09:36:45;;;;;;;23.35;17.67;;;7.90;84.80;;;;;;10906099;32;20023;-74
2022/12/20 09:42:48;;;;;;;25.95;19.15;;;8.10;84.50;;;;;;10905037;32;20432;-74
2022/12/20 09:48:51;;;;;;;17.60;14.30;;;7.70;84.20;;;;;;10905797;32;20295;-74
2022/12/20 09:55:15;;;;;;;24.95;18.00;;;7.50;85.10;;;;;;10905612;32;20042;-74
2022/12/20 10:01:23;;;;;;;23.65;20.08;;;7.50;85.10;;;;;;10905438;32;20314;-74
2022/12/20 10:07:40;;;;;;;29.77;21.33;;;7.50;85.40;;;;;;10904469;32;20024;-73
2022/12/20 10:14:02;;;;;;;19.62;15.77;;;8.10;86.10;;;;;;10904552;32;20045;-73
2022/12/20 10:20:10;;;;;;;20.27;13.65;;;8.40;85.20;;;;;;10778426;33;20024;-73
2022/12/20 10:26:13;;;;;;;20.83;16.15;;;8.00;85.10;;;;;;10789355;33;20032;-73
2022/12/20 10:32:20;;;;;;;22.05;16.98;;;7.80;86.10;;;;;;10790219;33;20051;-73
2022/12/20 10:38:22;;;;;;;16.12;13.38;;;8.40;86.70;;;;;;10789944;33;20020;-73
2022/12/20 10:44:27;;;;;;;24.20;19.23;;;8.50;85.70;;;;;;10789752;33;20075;-74
2022/12/20 10:50:29;;;;;;;17.83;14.43;;;8.10;86.00;;;;;;10789782;33;20430;-73
2022/12/20 10:56:33;;;;;;;19.77;15.55;;;8.30;86.60;;;;;;10841173;32;20031;-73
2022/12/20 11:02:37;;;;;;;17.83;13.60;;;8.40;86.00;;;;;;10866326;32;20016;-73
2022/12/20 11:08:39;;;;;;;17.48;13.48;;;8.10;85.60;;;;;;10866515;32;20055;-74
2022/12/20 11:14:44;;;;;;;18.60;14.20;;;8.20;86.80;;;;;;10869005;32;20345;-74
2022/12/20 11:21:05;;;;;;;17.37;13.85;;;8.00;86.20;;;;;;10873730;32;20042;-73
2022/12/20 11:27:11;;;;;;;19.80;14.23;;;8.10;86.40;;;;;;10873680;32;20428;-74
2022/12/20 11:33:46;;;;;;;23.08;15.88;;;8.00;86.40;;;;;;10875681;32;20208;-74
2022/12/20 11:40:04;;;;;;;24.98;19.10;;;7.70;86.70;;;;;;10869397;32;20058;-74
2022/12/20 11:46:21;;;;;;;21.80;16.58;;;8.20;87.10;;;;;;10869151;32;20050;-73
2022/12/20 11:52:50;;;;;;;20.23;13.43;;;8.30;86.50;;;;;;10868244;32;20158;-73
2022/12/20 11:59:14;;;;;;;31.98;20.60;;;8.60;86.70;;;;;;10856037;32;20023;-73
2022/12/20 12:05:38;;;;;;;19.05;15.32;;;8.70;86.70;;;;;;10864164;32;20046;-73
2022/12/20 12:11:56;;;;;;;20.45;15.55;;;8.90;86.60;;;;;;10874964;32;20042;-74
2022/12/20 12:18:10;;;;;;;25.58;17.70;;;8.90;86.30;;;;;;10909775;32;20015;-73
2022/12/20 12:24:29;;;;;;;14.70;10.88;;;9.10;86.90;;;;;;10907891;32;20442;-73
2022/12/20 12:30:39;;;;;;;14.50;9.95;;;9.10;86.40;;;;;;10908652;32;20020;-73
2022/12/20 12:36:41;;;;;;;25.33;18.23;;;8.90;86.90;;;;;;10908468;32;20057;-73
2022/12/20 12:43:23;;;;;;;16.42;11.48;;;8.70;86.70;;;;;;10908413;32;20402;-73
2022/12/20 12:49:27;;;;;;;17.42;11.50;;;8.50;87.00;;;;;;10907216;32;20398;-73
2022/12/20 12:56:05;;;;;;;19.90;14.73;;;8.40;87.30;;;;;;10906759;32;20050;-74
2022/12/20 13:02:14;;;;;;;21.15;15.32;;;8.30;87.20;;;;;;10890267;32;20023;-73
2022/12/20 13:08:17;;;;;;;21.30;15.05;;;8.10;87.20;;;;;;10907468;32;20007;-73
2022/12/20 13:20:27;;;;;;;16.92;12.82;;;8.20;87.50;;;;;;10908206;32;20027;-73
2022/12/20 13:26:49;;;;;;;29.17;21.52;;;8.10;87.30;;;;;;10905211;32;20467;-74
2022/12/20 13:32:57;;;;;;;18.58;11.82;;;8.10;87.50;;;;;;10906166;32;20341;-74
2022/12/20 13:39:03;;;;;;;21.87;14.02;;;8.00;87.50;;;;;;10906226;32;20479;-74
2022/12/20 13:45:12;;;;;;;23.17;17.75;;;8.00;87.50;;;;;;10905962;32;20023;-74
2022/12/20 13:51:20;;;;;;;25.20;17.40;;;8.10;87.40;;;;;;10905982;32;20012;-74
2022/12/20 13:57:46;;;;;;;16.20;11.12;;;7.90;87.20;;;;;;10904211;32;20031;-74
2022/12/20 14:03:49;;;;;;;16.95;11.63;;;7.90;87.40;;;;;;10902824;32;20057;-74
2022/12/20 14:09:58;;;;;;;17.87;13.07;;;8.00;87.40;;;;;;10901532;32;20318;-73
2022/12/20 14:16:14;;;;;;;25.77;19.12;;;8.30;87.60;;;;;;10904891;32;20050;-73
2022/12/20 14:22:17;;;;;;;19.80;14.15;;;8.30;87.40;;;;;;10903974;32;20050;-74
2022/12/20 14:28:34;;;;;;;17.23;12.85;;;8.40;87.40;;;;;;10900574;32;20059;-73
2022/12/20 14:34:36;;;;;;;22.37;17.17;;;8.20;87.50;;;;;;10899800;32;20413;-73
2022/12/20 14:40:42;;;;;;;21.35;16.02;;;8.30;88.00;;;;;;10904408;32;20378;-74
2022/12/20 14:46:48;;;;;;;17.37;11.95;;;8.60;87.50;;;;;;10902813;32;20054;-73
2022/12/20 14:52:50;;;;;;;20.67;14.73;;;8.40;87.40;;;;;;10903875;32;20050;-73
2022/12/20 14:59:13;;;;;;;17.92;12.77;;;8.30;87.50;;;;;;10903777;32;20027;-74
2022/12/20 15:05:34;;;;;;;15.77;11.43;;;8.20;87.70;;;;;;10899814;32;20020;-74
2022/12/20 15:11:37;;;;;;;19.05;15.35;;;8.30;87.70;;;;;;10903354;32;20165;-73
2022/12/20 15:17:39;;;;;;;30.00;21.27;;;8.30;87.40;;;;;;10899339;32;20428;-74
2022/12/20 15:23:48;;;;;;;34.70;22.23;;;8.20;87.60;;;;;;10899539;32;20062;-74
2022/12/20 15:29:50;;;;;;;28.45;23.05;;;8.40;87.40;;;;;;10902662;32;20394;-74
2022/12/20 15:35:53;;;;;;;22.80;17.73;;;8.70;87.20;;;;;;10899171;32;20019;-74
2022/12/20 15:41:59;;;;;;;26.90;20.90;;;9.10;86.60;;;;;;10902560;32;20012;-73
2022/12/20 15:48:01;;;;;;;21.85;16.02;;;9.20;86.00;;;;;;10902476;32;20050;-77
2022/12/20 15:54:13;;;;;;;24.20;17.67;;;9.30;85.50;;;;;;10896989;32;20035;-77
2022/12/20 16:00:15;;;;;;;20.30;17.08;;;9.10;85.50;;;;;;10907539;32;20038;-77
2022/12/20 16:06:34;;;;;;;20.60;15.65;;;9.20;85.40;;;;;;10906406;32;20015;-77
2022/12/20 16:12:36;;;;;;;32.27;25.07;;;9.30;85.20;;;;;;10907587;32;20027;-77
2022/12/20 16:19:05;;;;;;;;;;;9.20;85.30;;;;;;10908890;32;20019;-77
2022/12/20 16:25:35;;;;;;;56.22;34.58;;;9.40;84.80;;;;;;10911135;27;19949;-77
2022/12/20 16:31:41;;;;;;;31.77;24.35;;;9.40;84.60;;;;;;10908767;32;20028;-77
2022/12/20 16:37:43;;;;;;;49.38;36.70;;;9.50;84.40;;;;;;10908525;32;20053;-77
2022/12/20 16:43:46;;;;;;;43.40;30.27;;;9.40;84.70;;;;;;10907988;32;20023;-77
2022/12/20 16:49:48;;;;;;;37.63;26.50;;;9.40;84.40;;;;;;10908100;32;20441;-77
2022/12/20 16:55:50;;;;;;;41.78;31.75;;;9.50;84.30;;;;;;10907771;32;20482;-77
2022/12/20 17:01:55;;;;;;;36.53;26.33;;;9.30;84.20;;;;;;10907708;32;20041;-77
2022/12/20 17:07:57;;;;;;;47.75;33.53;;;9.10;84.30;;;;;;10907021;32;20349;-77
2022/12/20 17:13:59;;;;;;;59.53;36.28;;;9.10;84.90;;;;;;10907227;32;20046;-77
2022/12/20 17:20:02;;;;;;;32.53;24.00;;;9.10;84.70;;;;;;10906252;32;20310;-77
2022/12/20 17:26:04;;;;;;;40.83;28.52;;;9.20;84.50;;;;;;10902689;32;20385;-77
2022/12/20 17:32:19;;;;;;;40.78;31.70;;;8.90;84.40;;;;;;10906432;32;20357;-77
2022/12/20 17:38:21;;;;;;;41.15;30.65;;;8.90;84.90;;;;;;10906164;32;20046;-77
2022/12/20 17:44:25;;;;;;;43.13;31.55;;;9.00;84.80;;;;;;10905695;32;20024;-77
2022/12/20 17:50:27;;;;;;;33.15;26.17;;;9.20;85.00;;;;;;10905305;32;20019;-77
2022/12/20 17:56:35;;;;;;;49.15;34.03;;;9.20;84.60;;;;;;10905483;32;20028;-77
2022/12/20 18:02:39;;;;;;;37.58;25.80;;;9.10;84.60;;;;;;10901712;32;20050;-74
2022/12/20 18:08:41;;;;;;;38.80;24.80;;;9.20;84.80;;;;;;10902525;32;20050;-74
2022/12/20 18:14:44;;;;;;;32.20;24.35;;;9.20;84.70;;;;;;10891034;32;20038;-73
2022/12/20 18:20:45;;;;;;;34.55;24.33;;;9.20;84.50;;;;;;10902624;32;20050;-77
2022/12/20 18:26:47;;;;;;;31.25;22.02;;;9.10;84.50;;;;;;10890494;32;20046;-77
2022/12/20 18:32:51;;;;;;;34.72;22.50;;;9.10;84.50;;;;;;10904391;32;20344;-77
2022/12/20 18:38:58;;;;;;;30.27;20.65;;;9.10;84.60;;;;;;10904435;32;20045;-77
2022/12/20 18:45:00;;;;;;;32.63;24.30;;;9.10;84.80;;;;;;10904351;32;20491;-77
2022/12/20 18:51:08;;;;;;;26.50;19.23;;;9.20;84.80;;;;;;10902509;32;20050;-77
2022/12/20 18:57:09;;;;;;;24.55;19.05;;;9.10;84.50;;;;;;10890562;32;20028;-77
2022/12/20 19:03:11;;;;;;;25.75;18.95;;;8.60;84.90;;;;;;10891713;32;20180;-77
2022/12/20 19:09:14;;;;;;;23.10;17.12;;;8.40;85.60;;;;;;10890300;32;20042;-77
2022/12/20 19:15:21;;;;;;;29.10;20.80;;;8.30;85.50;;;;;;10903522;32;20432;-76
2022/12/20 19:21:26;;;;;;;23.38;17.35;;;8.20;85.70;;;;;;10903613;32;20028;-77
2022/12/20 19:27:29;;;;;;;32.33;24.77;;;8.20;85.70;;;;;;10903424;32;20045;-77
2022/12/20 19:33:30;;;;;;;32.03;25.40;;;8.00;86.00;;;;;;10907083;32;20081;-77
2022/12/20 19:39:32;;;;;;;30.35;20.80;;;8.20;86.00;;;;;;10910599;32;20046;-77
2022/12/20 19:45:38;;;;;;;35.58;27.08;;;8.40;85.50;;;;;;10909834;32;20393;-77
2022/12/20 19:51:40;;;;;;;27.73;20.95;;;8.30;85.60;;;;;;10896823;32;20015;-77
2022/12/20 19:58:07;;;;;;;36.83;27.45;;;8.30;85.50;;;;;;10909875;32;20050;-77
2022/12/20 20:04:09;;;;;;;34.95;26.37;;;8.20;85.80;;;;;;10905714;32;20020;-77
2022/12/20 20:10:11;;;;;;;32.40;24.77;;;8.30;85.70;;;;;;10896203;32;20425;-77
2022/12/20 20:16:13;;;;;;;30.17;23.42;;;8.20;85.80;;;;;;10909152;32;20041;-77
2022/12/20 20:22:16;;;;;;;22.83;19.45;;;8.20;85.70;;;;;;10907791;32;20029;-77
2022/12/20 20:28:19;;;;;;;30.10;21.50;;;8.20;85.70;;;;;;10908605;32;20306;-77
2022/12/20 20:34:21;;;;;;;38.00;26.70;;;8.30;85.70;;;;;;10910201;32;20213;-74
2022/12/20 20:40:23;;;;;;;28.08;23.20;;;8.50;85.50;;;;;;10894921;32;20041;-74
2022/12/20 20:47:14;;;;;;;29.60;23.38;;;8.40;85.40;;;;;;10907366;32;20038;-74
2022/12/20 20:53:16;;;;;;;28.42;20.02;;;8.40;85.40;;;;;;10907975;32;20330;-74
2022/12/20 20:59:20;;;;;;;27.10;20.30;;;8.30;85.70;;;;;;10906880;32;20050;-74
2022/12/20 21:05:23;;;;;;;26.85;20.12;;;8.30;85.60;;;;;;10894359;32;20019;-74
2022/12/20 21:11:26;;;;;;;23.60;18.92;;;8.40;85.50;;;;;;10907202;32;20019;-74
2022/12/20 21:17:32;;;;;;;19.83;15.07;;;8.40;85.40;;;;;;10893706;32;20019;-74
2022/12/20 21:23:34;;;;;;;28.15;22.00;;;8.30;85.30;;;;;;10891091;32;20039;-74
2022/12/20 21:29:36;;;;;;;27.45;22.62;;;8.30;85.60;;;;;;10906451;32;20045;-74
2022/12/20 21:35:38;;;;;;;27.92;21.80;;;8.40;85.60;;;;;;10892234;32;20035;-74
2022/12/20 21:41:40;;;;;;;24.27;19.37;;;8.50;85.40;;;;;;10906478;32;20030;-74
2022/12/20 21:47:42;;;;;;;26.60;20.05;;;8.20;85.50;;;;;;10905572;32;20409;-74
2022/12/20 21:53:47;;;;;;;24.35;18.83;;;8.20;85.70;;;;;;10905645;32;20049;-74
2022/12/20 21:59:50;;;;;;;25.95;20.02;;;8.10;85.70;;;;;;10905629;32;20042;-73
2022/12/20 22:05:54;;;;;;;26.92;19.15;;;8.00;85.90;;;;;;10905500;32;20023;-74
2022/12/20 22:11:57;;;;;;;25.15;20.88;;;8.10;85.80;;;;;;10890624;32;20062;-74
2022/12/20 22:17:59;;;;;;;42.97;28.65;;;7.90;85.80;;;;;;10905164;32;20019;-74
2022/12/20 22:24:06;;;;;;;38.22;25.00;;;7.90;86.00;;;;;;10904858;32;20055;-74
2022/12/20 22:30:09;;;;;;;38.10;25.35;;;8.00;86.00;;;;;;10878525;32;20427;-74
2022/12/20 22:36:13;;;;;;;28.75;22.50;;;7.90;85.90;;;;;;10903388;32;20085;-74
2022/12/20 22:42:15;;;;;;;24.23;18.67;;;7.90;86.00;;;;;;10890730;32;20031;-74
2022/12/20 22:48:17;;;;;;;22.67;17.55;;;7.90;86.00;;;;;;10890728;32;20354;-73
2022/12/20 22:54:20;;;;;;;59.17;35.40;;;7.80;86.10;;;;;;10904156;32;20027;-74
2022/12/20 23:00:26;;;;;;;30.83;23.08;;;7.80;86.20;;;;;;10890944;32;20390;-74
2022/12/20 23:06:27;;;;;;;27.87;18.58;;;8.00;85.90;;;;;;10905265;32;20015;-74
2022/12/20 23:18:55;;;;;;;26.58;19.55;;;7.50;86.30;;;;;;10911540;32;20382;-74
2022/12/20 23:24:57;;;;;;;22.58;16.33;;;7.40;86.30;;;;;;10911132;32;20393;-74
2022/12/20 23:31:32;;;;;;;24.65;17.17;;;7.20;86.40;;;;;;10910969;32;20015;-73
2022/12/20 23:37:34;;;;;;;23.87;17.23;;;7.20;86.60;;;;;;10908448;32;20341;-73
2022/12/20 23:43:36;;;;;;;21.95;16.40;;;7.20;86.60;;;;;;10910497;32;20085;-74
2022/12/20 23:49:41;;;;;;;22.45;16.83;;;7.20;86.60;;;;;;10910357;32;20342;-74
2022/12/20 23:55:43;;;;;;;19.83;15.68;;;7.30;86.50;;;;;;10910207;32;20027;-74
